Corum, Turkey
Current Conditions -  °F | °C
As of 9:20 PM on Monday 26 Jan 2015 (Local Time) from LTAP Reporting Station
Clear Clear  
Wind Chill: 30°   Ceiling: Unl
Heat Index: 37°   Visibility: 6mi
Dew Point: 34°   Wind: 10mph
Humidity: 87%   Direction: 270°W
Pressure: 30.09"   Gusts: NA
Location:  40.56°N, 34.96°E
Report Text: LTAP 261820Z 27009KT CAVOK 03/01 Q1019 NOSIG
Loading
Personal Weather Stations






























Interactive Weather Map New forecast layout! Learn more

10-Day Weather Forecast

Advertisements
Track Severe Weather on mobile